createdAt,value
2023-09-28T00:01:31.394Z,5.85
2023-09-28T00:03:58.231Z,6.35
2023-09-28T00:08:55.854Z,5.68
2023-09-28T00:11:22.297Z,6.15
2023-09-28T00:13:48.929Z,6.72
2023-09-28T00:16:15.649Z,6.20
2023-09-28T00:18:42.127Z,6.10
2023-09-28T00:21:08.624Z,6.63
2023-09-28T00:23:35.272Z,5.80
2023-09-28T00:26:01.789Z,6.45
2023-09-28T00:28:28.464Z,6.50
2023-09-28T00:30:55.091Z,6.28
2023-09-28T00:33:21.697Z,6.47
2023-09-28T00:35:48.512Z,6.13
2023-09-28T00:38:14.979Z,5.85
2023-09-28T00:40:41.957Z,5.90
2023-09-28T00:43:08.585Z,6.90
2023-09-28T00:45:35.380Z,6.40
2023-09-28T00:48:03.952Z,6.00
2023-09-28T00:50:31.331Z,6.10
2023-09-28T00:53:03.988Z,6.82
2023-09-28T00:55:31.249Z,6.70
2023-09-28T00:58:00.651Z,6.70
2023-09-28T01:00:28.059Z,6.40
2023-09-28T01:02:56.278Z,6.35
2023-09-28T01:05:28.139Z,6.68
2023-09-28T01:07:55.016Z,6.32
2023-09-28T01:12:47.881Z,6.00
2023-09-28T01:15:14.696Z,6.03
2023-09-28T01:17:42.154Z,5.95
2023-09-28T01:20:09.610Z,6.32
2023-09-28T01:22:36.324Z,5.82
2023-09-28T01:25:04.725Z,6.53
2023-09-28T01:27:31.507Z,7.15
2023-09-28T01:29:58.175Z,6.30
2023-09-28T01:32:24.666Z,6.18
2023-09-28T01:34:51.469Z,7.15
2023-09-28T01:37:22.621Z,6.32
2023-09-28T01:39:49.500Z,6.57
2023-09-28T01:42:15.925Z,5.82
2023-09-28T01:44:43.227Z,6.20
2023-09-28T01:47:09.984Z,6.30
2023-09-28T01:49:36.525Z,5.93
2023-09-28T01:52:03.105Z,6.75
2023-09-28T01:54:29.589Z,6.05
2023-09-28T01:56:56.216Z,6.70
2023-09-28T01:59:23.005Z,6.25
2023-09-28T02:01:49.626Z,6.05
2023-09-28T02:04:16.541Z,5.68
2023-09-28T02:06:43.311Z,6.07
2023-09-28T02:09:10.268Z,5.82
2023-09-28T02:14:04.172Z,5.82
2023-09-28T02:16:30.841Z,6.25
2023-09-28T02:18:57.465Z,5.93
2023-09-28T02:21:24.284Z,6.22
2023-09-28T02:23:51.239Z,6.25
2023-09-28T02:28:44.336Z,5.55
2023-09-28T02:31:11.121Z,6.57
2023-09-28T02:33:38.005Z,6.32
2023-09-28T02:36:24.951Z,5.55
2023-09-28T02:38:51.549Z,5.65
2023-09-28T02:41:19.683Z,5.32
2023-09-28T02:43:46.281Z,5.40
2023-09-28T02:46:13.842Z,5.53
2023-09-28T02:48:41.676Z,6.00
2023-09-28T02:51:08.311Z,5.53
2023-09-28T02:53:35.015Z,5.35
2023-09-28T02:56:02.354Z,5.45
2023-09-28T02:58:28.978Z,5.80
2023-09-28T03:00:55.908Z,5.68
2023-09-28T03:03:23.474Z,5.78
2023-09-28T03:05:50.007Z,5.82
2023-09-28T03:08:16.867Z,6.55
2023-09-28T03:10:43.926Z,6.05
2023-09-28T03:13:11.317Z,5.93
2023-09-28T03:15:39.182Z,5.85
2023-09-28T03:18:07.069Z,6.28
2023-09-28T03:20:33.777Z,5.55
2023-09-28T03:23:00.655Z,6.50
2023-09-28T03:27:55.833Z,4.65
2023-09-28T03:30:24.416Z,5.75
2023-09-28T03:32:51.684Z,5.75
2023-09-28T03:35:20.389Z,5.88
2023-09-28T03:37:48.202Z,6.55
2023-09-28T03:40:18.306Z,6.13
2023-09-28T03:42:47.260Z,5.63
2023-09-28T03:45:16.257Z,5.60
2023-09-28T03:47:45.053Z,5.60
2023-09-28T03:50:13.454Z,6.35
2023-09-28T03:52:41.706Z,5.55
2023-09-28T03:55:13.349Z,5.85
2023-09-28T03:57:40.657Z,6.00
2023-09-28T04:00:08.301Z,5.30
2023-09-28T04:02:34.819Z,5.80
2023-09-28T04:05:01.496Z,5.20
2023-09-28T04:07:28.266Z,6.00
2023-09-28T04:09:54.718Z,6.35
2023-09-28T04:12:21.214Z,6.28
2023-09-28T04:14:47.673Z,5.03
2023-09-28T04:17:17.046Z,6.05
2023-09-28T04:19:43.868Z,5.97
2023-09-28T04:22:10.388Z,5.90
2023-09-28T04:24:37.097Z,5.68
2023-09-28T04:27:03.814Z,6.05
2023-09-28T04:29:30.321Z,5.82
2023-09-28T04:31:57.080Z,6.10
2023-09-28T04:34:23.539Z,5.68
2023-09-28T04:36:50.204Z,6.20
2023-09-28T04:39:19.309Z,5.75
2023-09-28T04:41:45.853Z,5.22
2023-09-28T04:44:12.350Z,5.70
2023-09-28T04:46:38.845Z,5.38
2023-09-28T04:49:05.365Z,5.32
2023-09-28T04:51:31.821Z,5.65
2023-09-28T04:53:58.312Z,5.35
2023-09-28T04:56:24.739Z,5.50
2023-09-28T04:58:51.245Z,5.35
2023-09-28T05:01:18.955Z,5.80
2023-09-28T05:03:45.532Z,5.75
2023-09-28T05:06:12.008Z,5.28
2023-09-28T05:08:38.935Z,5.25
2023-09-28T05:11:05.366Z,6.30
2023-09-28T05:13:32.044Z,5.32
2023-09-28T05:15:59.021Z,5.25
2023-09-28T05:20:51.879Z,5.13
2023-09-28T05:23:18.448Z,6.00
2023-09-28T05:25:44.890Z,5.18
2023-09-28T05:28:16.693Z,5.55
2023-09-28T05:30:44.338Z,5.38
2023-09-28T05:33:11.167Z,5.25
2023-09-28T05:35:37.650Z,5.93
2023-09-28T05:38:04.572Z,5.20
2023-09-28T05:40:31.269Z,6.10
2023-09-28T05:42:57.725Z,6.45
2023-09-28T05:45:24.153Z,6.22
2023-09-28T05:47:50.606Z,5.35
2023-09-28T05:50:17.236Z,5.85
2023-09-28T05:52:43.702Z,5.90
2023-09-28T05:55:10.347Z,5.80
2023-09-28T05:57:36.788Z,5.32
2023-09-28T06:00:04.017Z,5.70
2023-09-28T06:02:30.594Z,5.78
2023-09-28T06:04:57.135Z,5.95
2023-09-28T06:07:23.627Z,5.00
2023-09-28T06:09:50.055Z,5.05
2023-09-28T06:12:16.491Z,5.25
2023-09-28T06:14:42.948Z,5.50
2023-09-28T06:17:09.420Z,6.03
2023-09-28T06:19:43.885Z,6.38
2023-09-28T06:22:22.301Z,5.32
2023-09-28T06:27:15.062Z,4.65
2023-09-28T06:29:43.298Z,5.00
2023-09-28T06:32:09.765Z,5.25
2023-09-28T06:34:36.273Z,4.97
2023-09-28T06:37:02.782Z,5.32
2023-09-28T06:39:30.726Z,5.57
2023-09-28T06:42:05.573Z,5.45
2023-09-28T06:44:41.078Z,5.45
2023-09-28T06:47:07.524Z,5.28
2023-09-28T06:49:34.011Z,5.78
2023-09-28T06:52:00.428Z,5.25
2023-09-28T06:54:26.848Z,5.30
2023-09-28T06:56:53.406Z,6.18
2023-09-28T06:59:20.210Z,5.25
2023-09-28T07:01:46.934Z,5.75
2023-09-28T07:04:14.072Z,5.18
2023-09-28T07:06:40.782Z,5.28
2023-09-28T07:09:07.495Z,5.97
2023-09-28T07:11:33.941Z,5.18
2023-09-28T07:14:00.356Z,5.68
2023-09-28T07:16:26.829Z,6.68
2023-09-28T07:18:53.607Z,5.63
2023-09-28T07:23:46.671Z,5.10
2023-09-28T07:26:14.752Z,5.18
2023-09-28T07:28:41.240Z,5.95
2023-09-28T07:31:07.789Z,5.50
2023-09-28T07:33:34.403Z,5.53
2023-09-28T07:36:01.034Z,6.05
2023-09-28T07:38:27.498Z,5.38
2023-09-28T07:40:54.079Z,5.05
2023-09-28T07:43:20.830Z,5.30
2023-09-28T07:45:47.300Z,5.60
2023-09-28T07:48:13.753Z,5.68
2023-09-28T07:50:40.232Z,5.70
2023-09-28T07:53:06.794Z,5.93
2023-09-28T07:55:33.359Z,5.85
2023-09-28T07:58:08.647Z,6.35
2023-09-28T08:00:46.447Z,5.10
2023-09-28T08:03:13.652Z,5.97
2023-09-28T08:05:40.285Z,5.95
2023-09-28T08:08:15.018Z,6.32
2023-09-28T08:10:44.234Z,5.78
2023-09-28T08:13:13.586Z,5.45
2023-09-28T08:15:40.372Z,5.25
2023-09-28T08:18:07.035Z,6.10
2023-09-28T08:23:00.083Z,4.63
2023-09-28T08:25:26.530Z,4.93
2023-09-28T08:27:53.007Z,5.35
2023-09-28T08:30:19.744Z,5.88
2023-09-28T08:32:46.417Z,5.57
2023-09-28T08:37:40.977Z,5.22
2023-09-28T08:40:08.511Z,5.15
2023-09-28T08:42:39.464Z,5.13
2023-09-28T08:45:06.934Z,6.20
2023-09-28T08:47:36.121Z,5.13
2023-09-28T08:50:03.665Z,4.70
2023-09-28T08:52:30.240Z,5.15
2023-09-28T08:54:57.651Z,4.78
2023-09-28T08:57:25.001Z,5.32
2023-09-28T08:59:53.295Z,5.20
2023-09-28T09:02:19.923Z,5.10
2023-09-28T09:04:46.426Z,4.93
2023-09-28T09:07:13.113Z,5.53
2023-09-28T09:12:10.548Z,5.70
2023-09-28T09:14:37.174Z,5.18
2023-09-28T09:17:09.688Z,5.47
2023-09-28T09:19:37.594Z,6.70
2023-09-28T09:22:04.540Z,5.18
2023-09-28T09:24:31.330Z,5.50
2023-09-28T09:29:24.580Z,4.90
2023-09-28T09:31:52.184Z,4.57
2023-09-28T09:34:22.661Z,4.82
2023-09-28T09:36:59.624Z,5.35
2023-09-28T09:39:27.900Z,4.97
2023-09-28T09:41:55.600Z,5.50
2023-09-28T09:44:23.604Z,4.55
2023-09-28T09:46:52.086Z,5.30
2023-09-28T09:49:18.582Z,5.75
2023-09-28T09:51:47.123Z,4.88
2023-09-28T09:54:15.025Z,5.78
2023-09-28T09:56:48.891Z,5.03
2023-09-28T09:59:17.915Z,4.90
2023-09-28T10:01:45.994Z,5.90
2023-09-28T10:04:14.027Z,4.88
2023-09-28T10:06:44.901Z,5.30
2023-09-28T10:09:11.578Z,5.18
2023-09-28T10:14:06.762Z,5.80
2023-09-28T10:16:34.951Z,5.70
2023-09-28T10:19:03.547Z,5.50
2023-09-28T10:21:37.095Z,5.13
2023-09-28T10:24:10.680Z,5.47
2023-09-28T10:26:37.519Z,5.70
2023-09-28T10:29:09.676Z,4.95
2023-09-28T10:31:56.115Z,5.20
2023-09-28T10:34:26.866Z,4.80
2023-09-28T10:37:09.293Z,5.18
2023-09-28T10:39:39.253Z,4.72
2023-09-28T10:42:21.355Z,3.90
2023-09-28T10:44:50.376Z,4.05
2023-09-28T10:47:19.379Z,4.47
2023-09-28T10:49:46.027Z,4.07
2023-09-28T10:54:39.640Z,4.28
2023-09-28T10:57:06.865Z,3.75
2023-09-28T10:59:33.336Z,4.38
2023-09-28T11:02:01.657Z,4.20
2023-09-28T11:04:43.422Z,3.95
2023-09-28T11:07:14.982Z,4.63
2023-09-28T11:09:41.674Z,3.50
2023-09-28T11:12:09.843Z,3.45
2023-09-28T11:14:36.573Z,3.97
2023-09-28T11:17:03.769Z,3.80
2023-09-28T11:19:30.329Z,3.70
2023-09-28T11:21:57.077Z,3.58
2023-09-28T11:24:23.532Z,3.70
2023-09-28T11:26:50.105Z,3.78
2023-09-28T11:31:52.929Z,3.90
2023-09-28T11:34:39.331Z,3.97
2023-09-28T11:37:11.064Z,3.53
2023-09-28T11:39:39.492Z,3.85
2023-09-28T11:42:07.227Z,3.63
2023-09-28T11:44:33.993Z,3.65
2023-09-28T11:47:00.612Z,3.83
2023-09-28T11:51:54.986Z,3.38
2023-09-28T11:54:25.164Z,3.60
2023-09-28T11:56:52.830Z,3.47
2023-09-28T11:59:21.347Z,3.60
2023-09-28T12:01:48.681Z,3.47
2023-09-28T12:04:17.056Z,3.95
2023-09-28T12:06:43.528Z,4.05
2023-09-28T12:11:38.007Z,3.88
2023-09-28T12:14:04.929Z,4.00
2023-09-28T12:16:31.434Z,3.25
2023-09-28T12:18:58.872Z,3.65
2023-09-28T12:21:25.384Z,3.88
2023-09-28T12:26:18.455Z,3.75
2023-09-28T12:31:11.534Z,3.92
2023-09-28T12:33:38.192Z,3.60
2023-09-28T12:36:06.485Z,3.55
2023-09-28T12:38:33.327Z,3.70
2023-09-28T12:40:59.898Z,3.35
2023-09-28T12:43:26.347Z,3.70
2023-09-28T12:48:19.806Z,3.38
2023-09-28T12:50:46.742Z,3.50
2023-09-28T12:53:13.437Z,3.63
2023-09-28T12:55:40.036Z,3.60
2023-09-28T12:58:06.621Z,3.60
2023-09-28T13:00:33.123Z,3.88
2023-09-28T13:03:00.358Z,3.92
2023-09-28T13:05:27.065Z,4.05
2023-09-28T13:07:53.569Z,4.03
2023-09-28T13:12:46.497Z,3.47
2023-09-28T13:15:12.980Z,3.70
2023-09-28T13:20:07.063Z,3.65
2023-09-28T13:22:37.679Z,3.60
2023-09-28T13:25:05.412Z,3.53
2023-09-28T13:27:32.124Z,3.80
2023-09-28T13:29:59.081Z,3.63
2023-09-28T13:32:25.632Z,3.55
2023-09-28T13:34:52.119Z,4.03
2023-09-28T13:37:18.618Z,3.60
2023-09-28T13:42:12.170Z,3.78
2023-09-28T13:44:38.743Z,4.03
2023-09-28T13:47:06.236Z,3.20
2023-09-28T13:49:32.931Z,4.03
2023-09-28T13:51:59.505Z,2.95
2023-09-28T13:54:27.136Z,4.43
2023-09-28T13:56:55.539Z,3.70
2023-09-28T13:59:22.459Z,3.90
2023-09-28T14:01:49.752Z,3.72
2023-09-28T14:04:16.624Z,3.92
2023-09-28T14:06:43.196Z,4.00
2023-09-28T14:11:37.172Z,3.75
2023-09-28T14:14:03.737Z,3.42
2023-09-28T14:16:33.191Z,3.40
2023-09-28T14:19:02.108Z,4.28
2023-09-28T14:21:29.397Z,3.85
2023-09-28T14:23:56.055Z,4.20
2023-09-28T14:26:23.022Z,4.32
2023-09-28T14:28:49.499Z,3.80
2023-09-28T14:33:43.312Z,3.83
2023-09-28T14:36:11.307Z,4.53
2023-09-28T14:38:38.750Z,4.03
2023-09-28T14:41:05.427Z,3.40
2023-09-28T14:43:31.992Z,3.70
2023-09-28T14:48:25.207Z,3.97
2023-09-28T14:50:51.780Z,3.45
2023-09-28T14:53:18.358Z,3.90
2023-09-28T14:55:44.869Z,4.13
2023-09-28T14:58:11.339Z,3.67
2023-09-28T15:00:38.141Z,3.40
2023-09-28T15:03:05.414Z,3.42
2023-09-28T15:05:31.970Z,3.47
2023-09-28T15:10:25.103Z,3.85
2023-09-28T15:12:51.803Z,3.22
2023-09-28T15:15:18.623Z,3.22
2023-09-28T15:17:45.504Z,3.55
2023-09-28T15:22:40.137Z,3.10
2023-09-28T15:25:06.908Z,3.42
2023-09-28T15:27:33.320Z,3.25
2023-09-28T15:30:00.254Z,3.33
2023-09-28T15:32:27.044Z,3.65
2023-09-28T15:34:54.544Z,3.05
2023-09-28T15:37:21.032Z,3.92
2023-09-28T15:39:48.299Z,3.65
2023-09-28T15:42:16.085Z,3.13
2023-09-28T15:44:42.864Z,3.42
2023-09-28T15:47:09.389Z,3.00
2023-09-28T15:49:35.832Z,3.22
2023-09-28T15:52:02.320Z,3.03
2023-09-28T15:54:29.030Z,3.53
2023-09-28T15:59:21.783Z,3.35
2023-09-28T16:01:48.325Z,3.75
2023-09-28T16:06:41.475Z,3.28
2023-09-28T16:09:07.924Z,3.35
2023-09-28T16:11:34.385Z,3.30
2023-09-28T16:14:01.162Z,3.20
2023-09-28T16:16:28.025Z,3.40
2023-09-28T16:18:54.943Z,3.15
2023-09-28T16:21:21.604Z,4.05
2023-09-28T16:26:14.552Z,3.05
2023-09-28T16:31:09.755Z,3.50
2023-09-28T16:33:36.162Z,3.42
2023-09-28T16:36:03.136Z,3.63
2023-09-28T16:38:29.940Z,3.38
2023-09-28T16:40:56.402Z,4.10
2023-09-28T16:43:26.994Z,3.65
2023-09-28T16:45:53.608Z,3.85
2023-09-28T16:48:20.221Z,3.60
2023-09-28T16:50:47.498Z,3.83
2023-09-28T16:53:14.255Z,3.78
2023-09-28T16:55:40.813Z,3.85
2023-09-28T16:58:07.228Z,3.60
2023-09-28T17:00:33.696Z,3.70
2023-09-28T17:03:01.467Z,4.25
2023-09-28T17:05:28.041Z,4.13
2023-09-28T17:07:54.512Z,3.78
2023-09-28T17:10:20.900Z,3.72
2023-09-28T17:12:47.309Z,4.07
2023-09-28T17:15:13.916Z,3.60
2023-09-28T17:17:40.826Z,3.72
2023-09-28T17:20:12.770Z,4.30
2023-09-28T17:22:39.558Z,4.15
2023-09-28T17:25:06.635Z,4.72
2023-09-28T17:27:34.192Z,4.25
2023-09-28T17:30:00.602Z,4.78
2023-09-28T17:32:27.145Z,3.97
2023-09-28T17:34:53.589Z,3.80
2023-09-28T17:37:20.004Z,4.20
2023-09-28T17:39:46.436Z,4.43
2023-09-28T17:42:12.902Z,4.32
2023-09-28T17:44:39.443Z,4.85
2023-09-28T17:47:05.836Z,4.28
2023-09-28T17:49:32.244Z,4.22
2023-09-28T17:51:58.642Z,4.45
2023-09-28T17:54:25.086Z,4.13
2023-09-28T17:56:51.593Z,3.78
2023-09-28T17:59:18.000Z,4.65
2023-09-28T18:01:44.608Z,4.45
2023-09-28T18:04:11.126Z,4.50
2023-09-28T18:06:39.164Z,4.88
2023-09-28T18:09:05.630Z,5.18
2023-09-28T18:11:32.059Z,5.35
2023-09-28T18:13:58.814Z,5.57
2023-09-28T18:16:25.264Z,4.43
2023-09-28T18:18:54.214Z,5.57
2023-09-28T18:21:22.957Z,4.50
2023-09-28T18:23:49.426Z,4.85
2023-09-28T18:26:15.838Z,5.35
2023-09-28T18:28:42.309Z,5.03
2023-09-28T18:31:08.849Z,4.85
2023-09-28T18:33:35.724Z,4.93
2023-09-28T18:36:02.217Z,6.47
2023-09-28T18:38:28.959Z,5.07
2023-09-28T18:43:21.648Z,4.40
2023-09-28T18:45:52.765Z,5.50
2023-09-28T18:48:20.605Z,5.03
2023-09-28T18:50:47.125Z,5.03
2023-09-28T18:53:13.778Z,5.40
2023-09-28T18:55:40.197Z,5.03
2023-09-28T18:58:06.683Z,4.90
2023-09-28T19:00:33.354Z,5.40
2023-09-28T19:03:00.052Z,5.57
2023-09-28T19:07:53.100Z,5.40
2023-09-28T19:10:20.721Z,5.43
2023-09-28T19:12:47.186Z,8.77
2023-09-28T19:15:13.972Z,8.20
2023-09-28T19:17:40.409Z,8.68
2023-09-28T19:20:07.678Z,7.63
2023-09-28T19:22:34.123Z,8.00
2023-09-28T19:25:00.727Z,7.13
2023-09-28T19:27:37.922Z,8.35
2023-09-28T19:30:08.091Z,7.80
2023-09-28T19:32:34.562Z,7.20
2023-09-28T19:35:01.245Z,7.43
2023-09-28T19:37:30.273Z,7.75
2023-09-28T19:39:58.000Z,7.95
2023-09-28T19:42:24.424Z,7.28
2023-09-28T19:44:50.929Z,7.22
2023-09-28T19:47:17.374Z,7.75
2023-09-28T19:49:43.930Z,7.53
2023-09-28T19:52:10.413Z,7.88
2023-09-28T19:54:36.808Z,7.43
2023-09-28T19:57:03.765Z,8.48
2023-09-28T19:59:30.389Z,8.60
2023-09-28T20:01:56.829Z,8.85
2023-09-28T20:04:23.319Z,9.07
2023-09-28T20:06:49.713Z,8.70
2023-09-28T20:09:16.154Z,9.20
2023-09-28T20:11:42.745Z,9.45
2023-09-28T20:14:09.155Z,8.73
2023-09-28T20:16:35.628Z,8.38
2023-09-28T20:19:02.186Z,7.75
2023-09-28T20:21:28.666Z,7.93
2023-09-28T20:23:55.274Z,7.50
2023-09-28T20:26:21.839Z,8.40
2023-09-28T20:28:48.338Z,7.43
2023-09-28T20:31:14.800Z,7.95
2023-09-28T20:33:43.081Z,7.65
2023-09-28T20:36:09.822Z,7.57
2023-09-28T20:38:38.192Z,7.28
2023-09-28T20:41:04.854Z,7.45
2023-09-28T20:43:31.261Z,7.93
2023-09-28T20:45:58.807Z,7.07
2023-09-28T20:48:25.698Z,7.47
2023-09-28T20:50:52.713Z,7.88
2023-09-28T20:55:45.577Z,7.13
2023-09-28T20:58:12.034Z,7.85
2023-09-28T21:00:38.892Z,7.65
2023-09-28T21:03:05.926Z,8.27
2023-09-28T21:05:32.594Z,8.15
2023-09-28T21:07:59.746Z,6.82
2023-09-28T21:10:26.654Z,6.68
2023-09-28T21:12:53.224Z,7.32
2023-09-28T21:15:20.401Z,7.50
2023-09-28T21:17:47.144Z,7.60
2023-09-28T21:22:40.701Z,7.70
2023-09-28T21:25:07.802Z,7.72
2023-09-28T21:27:34.278Z,8.90
2023-09-28T21:30:00.861Z,7.25
2023-09-28T21:32:27.656Z,7.65
2023-09-28T21:34:54.210Z,7.57
2023-09-28T21:37:20.868Z,7.20
2023-09-28T21:39:47.609Z,6.60
2023-09-28T21:42:14.340Z,7.57
2023-09-28T21:44:41.041Z,7.10
2023-09-28T21:47:07.553Z,6.32
2023-09-28T21:49:34.007Z,7.03
2023-09-28T21:52:00.396Z,6.72
2023-09-28T21:54:28.103Z,6.47
2023-09-28T21:56:54.911Z,6.88
2023-09-28T21:59:21.378Z,6.50
2023-09-28T22:01:47.977Z,7.13
2023-09-28T22:04:14.730Z,6.78
2023-09-28T22:06:41.256Z,6.20
2023-09-28T22:09:07.752Z,6.53
2023-09-28T22:11:34.270Z,6.22
2023-09-28T22:14:00.824Z,6.40
2023-09-28T22:16:30.329Z,6.47
2023-09-28T22:18:57.046Z,5.78
2023-09-28T22:23:50.162Z,6.03
2023-09-28T22:26:16.713Z,5.85
2023-09-28T22:28:43.297Z,5.70
2023-09-28T22:31:09.843Z,6.53
2023-09-28T22:33:36.454Z,6.43
2023-09-28T22:36:03.386Z,6.72
2023-09-28T22:38:29.953Z,6.90
2023-09-28T22:40:56.776Z,6.55
2023-09-28T22:45:49.959Z,6.00
2023-09-28T22:48:16.554Z,6.82
2023-09-28T22:50:43.055Z,6.10
2023-09-28T22:53:09.756Z,7.53
2023-09-28T22:55:37.106Z,6.15
2023-09-28T22:58:03.658Z,6.13
2023-09-28T23:00:30.398Z,6.25
2023-09-28T23:02:56.962Z,5.85
2023-09-28T23:05:23.807Z,6.63
2023-09-28T23:10:17.319Z,5.95
2023-09-28T23:12:44.473Z,6.38
2023-09-28T23:15:12.350Z,6.63
2023-09-28T23:17:39.213Z,6.13
2023-09-28T23:22:33.296Z,5.18
2023-09-28T23:24:59.853Z,5.20
2023-09-28T23:27:26.344Z,5.32
2023-09-28T23:29:52.851Z,6.22
2023-09-28T23:32:19.382Z,6.90
2023-09-28T23:34:46.257Z,5.78
2023-09-28T23:37:12.763Z,6.78
2023-09-28T23:39:39.262Z,6.38
2023-09-28T23:42:05.752Z,5.80
2023-09-28T23:44:32.257Z,5.75
2023-09-28T23:46:58.741Z,6.28
2023-09-28T23:49:26.384Z,5.43
2023-09-28T23:51:52.820Z,5.95
2023-09-28T23:54:19.323Z,7.18
2023-09-28T23:56:45.864Z,6.32
2023-09-28T23:59:12.412Z,6.70
